Time;durP1;ratioP1;P1;durP2;ratioP2;P2;SDS_P1;SDS_P2;PMS_P1;PMS_P2;Temp;Humidity;BMP_temperature;BMP_pressure;BME280_temperature;BME280_humidity;BME280_pressure;Samples;Min_cycle;Max_cycle;Signal;HPM_P1;HPM_P2
2022/06/06 08:03:46;;;;;;;5.03;2.55;;;;;;;25.15;31.01;100186.81;5366212;23;21913;-69
2022/06/06 08:06:41;;;;;;;8.50;2.70;;;;;;;25.53;31.21;100187.16;5027310;23;21666;-73
2022/06/06 08:09:27;;;;;;;8.15;2.35;;;;;;;26.33;30.34;100192.03;5012698;23;20510;-71
2022/06/06 08:12:20;;;;;;;5.43;2.88;;;;;;;26.62;29.90;100191.84;5032865;23;22908;-72
2022/06/06 08:15:08;;;;;;;15.82;2.80;;;;;;;26.82;29.05;100198.59;5093066;23;20203;-76
2022/06/06 08:17:45;;;;;;;8.18;2.80;;;;;;;26.34;29.43;100192.88;5048600;23;20954;-76
2022/06/06 08:20:21;;;;;;;4.03;2.43;;;;;;;25.59;30.67;100186.97;5006845;23;21537;-75
2022/06/06 08:22:50;;;;;;;6.22;2.25;;;;;;;26.11;29.33;100189.34;5089177;23;21769;-74
2022/06/06 08:25:17;;;;;;;9.80;2.40;;;;;;;25.56;29.48;100186.66;5027644;23;20267;-72
2022/06/06 08:27:47;;;;;;;7.18;2.22;;;;;;;25.76;29.93;100188.84;5026078;23;20704;-76
2022/06/06 08:30:15;;;;;;;8.68;2.15;;;;;;;26.06;30.30;100183.81;5042674;23;20206;-73
2022/06/06 08:32:45;;;;;;;13.25;2.90;;;;;;;25.87;29.62;100182.47;5060803;23;21235;-76
2022/06/06 08:35:12;;;;;;;7.32;2.15;;;;;;;26.00;29.07;100179.38;5018339;23;20206;-73
2022/06/06 08:37:57;;;;;;;8.80;2.33;;;;;;;26.36;27.87;100190.69;5036019;23;22120;-72
2022/06/06 08:40:45;;;;;;;5.00;2.22;;;;;;;26.10;28.56;100176.75;5035002;23;22174;-72
2022/06/06 08:43:36;;;;;;;8.85;2.33;;;;;;;26.02;28.41;100185.41;5036500;23;20252;-74
2022/06/06 08:46:19;;;;;;;4.93;2.20;;;;;;;25.57;28.37;100188.31;5064857;23;20202;-72
2022/06/06 08:50:44;;;;;;;11.98;2.60;;;;;;;25.08;30.51;100180.72;5031872;23;20725;-75
2022/06/06 08:52:28;;;;;;;6.40;2.50;;;;;;;25.38;30.61;100177.69;5044070;23;20798;-70
2022/06/06 08:55:06;;;;;;;6.65;2.60;;;;;;;25.69;29.45;100192.56;5059132;23;20205;-73
2022/06/06 08:57:54;;;;;;;3.60;2.30;;;;;;;25.81;30.45;100178.00;5019045;23;20375;-75
2022/06/06 09:00:25;;;;;;;5.77;2.27;;;;;;;25.80;29.77;100171.75;5018968;23;20205;-72
2022/06/06 09:03:22;;;;;;;9.45;2.72;;;;;;;25.76;28.70;100176.03;5066173;23;21729;-74
2022/06/06 09:06:07;;;;;;;4.57;2.20;;;;;;;25.67;27.70;100192.00;5069405;23;22388;-73
2022/06/06 09:09:07;;;;;;;3.20;1.90;;;;;;;25.34;28.16;100172.97;5049358;23;20649;-76
2022/06/06 09:11:52;;;;;;;6.72;2.20;;;;;;;25.46;28.88;100176.44;5069190;23;20206;-73
2022/06/06 09:14:33;;;;;;;5.82;2.90;;;;;;;25.33;30.16;100168.59;5061341;23;20203;-76
2022/06/06 09:17:19;;;;;;;3.13;2.30;;;;;;;25.59;29.08;100172.50;5067660;23;20689;-76
2022/06/06 09:19:59;;;;;;;3.50;2.65;;;;;;;25.26;29.94;100164.16;5080482;23;25509;-73
2022/06/06 09:23:01;;;;;;;5.73;2.53;;;;;;;25.34;30.34;100168.34;5071015;23;20215;-71
2022/06/06 09:25:46;;;;;;;5.90;2.43;;;;;;;25.60;29.54;100166.81;5077815;23;20208;-73
2022/06/06 09:28:51;;;;;;;3.07;2.53;;;;;;;25.58;29.81;100157.25;5038913;23;20306;-71
2022/06/06 09:31:29;;;;;;;3.58;2.60;;;;;;;25.33;29.51;100154.97;5128282;23;21478;-73
2022/06/06 09:34:17;;;;;;;6.28;2.20;;;;;;;25.53;30.54;100149.81;5086797;23;20556;-73
2022/06/06 09:36:47;;;;;;;4.37;2.40;;;;;;;25.69;28.53;100153.59;5091046;23;20214;-73
2022/06/06 09:39:56;;;;;;;5.72;2.30;;;;;;;25.20;28.17;100159.69;5085422;23;20207;-70
2022/06/06 09:42:48;;;;;;;7.85;2.22;;;;;;;25.12;29.37;100153.78;5046608;23;20239;-70
2022/06/06 09:45:29;;;;;;;2.75;2.00;;;;;;;25.36;27.93;100151.75;5099339;23;20228;-70
2022/06/06 09:48:26;;;;;;;4.25;2.03;;;;;;;25.61;27.67;100141.19;5091172;23;20209;-68
2022/06/06 09:51:11;;;;;;;4.45;2.30;;;;;;;25.55;26.95;100142.22;5100969;23;20200;-71
2022/06/06 10:00:21;;;;;;;4.70;2.10;;;;;;;26.03;28.58;100132.50;5070413;23;20577;-70
2022/06/06 10:03:06;;;;;;;8.77;2.58;;;;;;;26.05;29.18;100126.81;5081458;23;20211;-73
2022/06/06 10:05:42;;;;;;;5.75;1.98;;;;;;;25.75;26.26;100149.03;5048544;23;20311;-71
2022/06/06 10:08:30;;;;;;;5.70;1.95;;;;;;;25.73;26.97;100140.25;5053059;23;22902;-71
2022/06/06 10:11:24;;;;;;;5.10;1.92;;;;;;;25.54;27.40;100135.09;5072389;23;20530;-71
2022/06/06 10:14:07;;;;;;;4.28;1.90;;;;;;;25.52;28.11;100126.38;5089898;23;20594;-71
2022/06/06 10:16:52;;;;;;;6.03;2.50;;;;;;;25.32;27.83;100121.47;5054940;23;21057;-72
2022/06/06 10:19:53;;;;;;;9.23;2.03;;;;;;;25.31;28.06;100113.53;5069582;23;25126;-71
2022/06/06 10:22:33;;;;;;;5.33;1.83;;;;;;;25.28;27.58;100112.94;5019720;23;22510;-70
2022/06/06 10:25:12;;;;;;;4.37;2.00;;;;;;;25.41;27.93;100119.16;5059782;23;20291;-71
2022/06/06 10:27:47;;;;;;;4.83;2.73;;;;;;;25.51;27.70;100108.38;5060478;23;21208;-72
2022/06/06 10:30:20;;;;;;;4.10;2.17;;;;;;;25.58;28.17;100105.47;5050350;23;20212;-72
2022/06/06 10:33:03;;;;;;;4.15;2.00;;;;;;;25.69;27.44;100104.53;5047559;23;20225;-71
2022/06/06 10:35:36;;;;;;;7.50;2.17;;;;;;;25.41;28.33;100095.44;5048352;23;20667;-73
2022/06/06 10:38:12;;;;;;;4.47;2.43;;;;;;;25.52;28.64;100093.69;5059504;23;21814;-72
2022/06/06 10:40:48;;;;;;;3.80;2.30;;;;;;;25.47;28.32;100091.72;5073308;23;21959;-72
2022/06/06 10:43:49;;;;;;;6.20;2.20;;;;;;;25.47;29.48;100077.25;5066992;23;21262;-71
2022/06/06 10:46:22;;;;;;;4.28;2.00;;;;;;;25.48;28.81;100087.91;5051114;23;21074;-70
2022/06/06 10:49:19;;;;;;;6.15;2.40;;;;;;;25.45;29.81;100085.69;5082170;23;20208;-68
2022/06/06 10:52:19;;;;;;;4.28;2.10;;;;;;;25.35;30.81;100082.81;5046468;23;20207;-70
2022/06/06 10:55:37;;;;;;;5.53;2.50;;;;;;;25.67;29.13;100068.53;5054715;23;20646;-72
2022/06/06 10:58:22;;;;;;;5.18;2.80;;;;;;;25.39;30.42;100075.78;5068079;23;21605;-69
2022/06/06 11:01:14;;;;;;;4.05;2.53;;;;;;;25.41;30.81;100060.03;5073212;23;20214;-71
2022/06/06 11:04:05;;;;;;;4.68;2.55;;;;;;;25.37;31.91;100060.78;5091348;23;20204;-71
2022/06/06 11:06:37;;;;;;;6.80;3.10;;;;;;;25.69;32.20;100059.00;5070988;23;20211;-69
2022/06/06 11:09:29;;;;;;;8.05;2.58;;;;;;;25.79;30.33;100065.66;5052119;23;21234;-70
2022/06/06 11:12:08;;;;;;;7.37;3.40;;;;;;;25.74;31.03;100055.53;5074606;23;20203;-68
2022/06/06 11:14:39;;;;;;;7.82;3.03;;;;;;;25.64;31.48;100055.41;5058823;23;20204;-70
2022/06/06 11:17:39;;;;;;;6.22;3.13;;;;;;;25.70;32.12;100063.38;5055662;23;20472;-70
2022/06/06 11:20:29;;;;;;;5.77;3.27;;;;;;;25.37;34.24;100036.25;5093866;23;20208;-69
2022/06/06 11:23:24;;;;;;;10.77;4.10;;;;;;;25.35;34.77;100032.97;5138326;23;20201;-61
2022/06/06 11:26:05;;;;;;;5.53;3.40;;;;;;;25.53;33.58;100038.09;5118948;23;20204;-56
2022/06/06 11:28:59;;;;;;;13.57;3.77;;;;;;;25.75;34.88;100037.25;5125785;23;21803;-56
2022/06/06 11:31:41;;;;;;;6.30;3.50;;;;;;;25.89;33.02;100041.28;5129715;23;20208;-57
2022/06/06 11:34:41;;;;;;;13.10;3.17;;;;;;;25.88;32.20;100037.72;5082025;23;20207;-60
2022/06/06 11:37:42;;;;;;;5.63;2.90;;;;;;;25.56;32.28;100032.13;5076355;23;23378;-75
2022/06/06 11:40:24;;;;;;;8.13;3.10;;;;;;;26.01;31.96;100036.50;5112232;23;20725;-75
2022/06/06 11:43:24;;;;;;;4.70;3.10;;;;;;;26.18;31.28;100049.22;5077141;23;20204;-74
2022/06/06 11:46:17;;;;;;;7.07;3.10;;;;;;;26.06;32.31;100044.75;5088857;23;20209;-76
2022/06/06 11:49:10;;;;;;;4.28;2.78;;;;;;;25.90;32.35;100040.22;5071973;23;20272;-74
2022/06/06 11:51:55;;;;;;;7.00;2.80;;;;;;;25.89;32.76;100027.63;5083136;23;20634;-76
2022/06/06 11:54:59;;;;;;;4.85;3.28;;;;;;;25.64;33.47;100026.25;5056291;23;23195;-74
2022/06/06 11:57:42;;;;;;;3.83;3.10;;;;;;;25.70;33.39;100025.22;5097706;23;21737;-59
2022/06/06 12:00:21;;;;;;;7.82;3.15;;;;;;;25.75;33.53;100029.09;5061048;23;22101;-60
2022/06/06 12:03:09;;;;;;;3.25;2.90;;;;;;;25.93;31.81;100022.50;5068762;23;20295;-56
2022/06/06 12:06:00;;;;;;;6.37;2.73;;;;;;;25.93;30.48;100034.22;5084259;23;20215;-61
2022/06/06 12:08:45;;;;;;;3.03;2.40;;;;;;;26.16;29.75;100026.84;5142787;23;20206;-57
2022/06/06 12:11:46;;;;;;;4.40;2.30;;;;;;;26.41;27.39;100029.78;5076430;23;20402;-62
2022/06/06 12:14:25;;;;;;;3.70;2.20;;;;;;;26.23;27.94;100031.00;5092433;23;22851;-71
2022/06/06 12:17:12;;;;;;;6.18;2.40;;;;;;;26.26;29.18;100032.38;5062302;23;20211;-71
2022/06/06 12:20:03;;;;;;;6.63;2.30;;;;;;;26.32;29.22;100025.91;5095619;23;20207;-73
2022/06/06 12:22:47;;;;;;;2.50;2.08;;;;;;;26.31;29.04;100029.69;5055475;23;21183;-74
2022/06/06 12:25:28;;;;;;;7.30;2.38;;;;;;;26.39;29.73;100022.97;5066393;23;21443;-72
2022/06/06 12:28:32;;;;;;;4.85;2.20;;;;;;;26.52;30.37;100019.78;5088824;23;20211;-71
2022/06/06 12:31:09;;;;;;;4.55;2.70;;;;;;;26.85;29.61;100015.94;5090509;23;21144;-75
2022/06/06 12:33:44;;;;;;;3.47;2.03;;;;;;;26.63;26.50;100031.63;5050130;23;26705;-74
2022/06/06 12:36:18;;;;;;;3.67;2.20;;;;;;;26.77;27.15;100015.63;5062291;23;20203;-71
2022/06/06 12:39:12;;;;;;;4.50;2.00;;;;;;;26.73;26.53;100020.78;5053672;23;20238;-73
2022/06/06 12:41:56;;;;;;;4.43;2.10;;;;;;;26.90;27.28;100016.00;5081791;23;20204;-74
2022/06/06 12:44:49;;;;;;;3.72;1.88;;;;;;;26.98;28.13;100000.19;5123125;23;20199;-78
2022/06/06 12:47:32;;;;;;;6.68;2.25;;;;;;;27.34;27.07;99996.56;5075246;23;20210;-74
2022/06/06 12:50:14;;;;;;;2.30;2.05;;;;;;;27.21;27.46;100007.19;5118111;23;22326;-71
2022/06/06 12:52:57;;;;;;;2.92;2.13;;;;;;;27.05;27.24;100003.50;5143875;23;20212;-72
2022/06/06 12:56:37;;;;;;;3.97;2.15;;;;;;;27.10;27.55;99998.06;5103771;23;20786;-78
2022/06/06 12:58:42;;;;;;;4.03;2.43;;;;;;;27.49;27.84;99993.09;5126376;23;20302;-71
2022/06/06 13:04:34;;;;;;;2.93;2.00;;;;;;;27.24;29.04;99988.34;5044033;23;20408;-70
2022/06/06 13:07:38;;;;;;;5.13;2.65;;;;;;;27.35;27.98;99986.47;5077521;23;20203;-70
2022/06/06 13:10:35;;;;;;;4.93;2.30;;;;;;;27.48;26.58;99982.41;5098900;23;20207;-74
2022/06/06 13:13:20;;;;;;;6.38;2.38;;;;;;;27.48;26.57;99990.63;5080216;23;20288;-75
2022/06/06 13:16:18;;;;;;;3.47;1.98;;;;;;;27.46;26.47;99985.41;5113163;23;20204;-73
2022/06/06 13:19:23;;;;;;;4.28;2.50;;;;;;;27.67;25.70;99988.22;5100297;23;20265;-75
2022/06/06 13:22:17;;;;;;;3.83;2.13;;;;;;;27.46;25.96;99981.84;5095503;23;20230;-72
2022/06/06 13:24:59;;;;;;;4.57;2.03;;;;;;;27.27;26.96;99982.31;5097486;23;20340;-70
2022/06/06 13:27:34;;;;;;;4.27;2.00;;;;;;;27.19;26.13;99980.09;5065822;23;21214;-72
2022/06/06 13:30:19;;;;;;;4.15;2.05;;;;;;;27.10;25.26;99979.78;5107765;23;20202;-72
2022/06/06 13:33:34;;;;;;;4.85;2.10;;;;;;;27.19;25.79;99976.53;5099266;23;20211;-72
2022/06/06 13:36:29;;;;;;;2.13;1.65;;;;;;;27.57;25.56;99969.88;5097181;23;21216;-71
2022/06/06 13:39:18;;;;;;;6.55;2.10;;;;;;;27.33;26.07;99964.88;5090797;23;25431;-73
2022/06/06 13:42:03;;;;;;;11.90;2.30;;;;;;;27.84;25.77;99966.97;5093954;23;20259;-71
2022/06/06 13:44:39;;;;;;;6.90;2.03;;;;;;;27.76;25.93;99970.19;5070622;23;20951;-73
2022/06/06 13:47:20;;;;;;;3.60;2.20;;;;;;;27.53;26.65;99963.28;5083887;23;21175;-76
2022/06/06 13:49:49;;;;;;;4.00;2.33;;;;;;;27.60;26.59;99952.09;5092481;23;21620;-70
2022/06/06 13:52:37;;;;;;;3.63;2.15;;;;;;;27.35;26.39;99950.97;5109039;23;21661;-74
2022/06/06 13:55:42;;;;;;;6.22;2.33;;;;;;;27.33;26.17;99970.34;5049109;23;20208;-71
2022/06/06 13:58:24;;;;;;;3.42;1.95;;;;;;;27.33;25.38;99973.06;5027060;23;20208;-77
2022/06/06 14:01:00;;;;;;;3.85;1.95;;;;;;;27.38;24.46;99966.81;5048921;23;20432;-71
2022/06/06 14:03:48;;;;;;;8.05;2.05;;;;;;;27.45;25.29;99961.09;5061740;23;20210;-71
2022/06/06 14:06:35;;;;;;;8.57;2.28;;;;;;;27.66;25.34;99960.06;5094444;23;21193;-73
2022/06/06 14:09:02;;;;;;;4.40;2.22;;;;;;;27.45;25.44;99966.56;5099231;23;20947;-74
2022/06/06 14:11:54;;;;;;;5.45;2.30;;;;;;;27.05;25.79;99952.44;5061926;23;20412;-74
2022/06/06 14:14:21;;;;;;;5.20;2.37;;;;;;;26.77;26.31;99956.38;5116806;23;20636;-76
2022/06/06 14:17:09;;;;;;;9.23;2.30;;;;;;;26.57;26.86;99956.25;5072325;23;20270;-72
2022/06/06 14:20:17;;;;;;;5.72;2.13;;;;;;;26.62;25.62;99959.00;5076095;23;20208;-75
2022/06/06 14:22:45;;;;;;;7.20;2.35;;;;;;;26.61;25.71;99955.47;5088098;23;20205;-71
2022/06/06 14:25:12;;;;;;;4.32;2.20;;;;;;;26.52;25.92;99948.81;5122760;23;25527;-72
2022/06/06 14:27:39;;;;;;;4.40;2.03;;;;;;;26.59;25.97;99952.16;5070686;23;20294;-72
2022/06/06 14:30:16;;;;;;;3.60;1.98;;;;;;;26.71;25.63;99946.50;5051925;23;21073;-79
2022/06/06 14:32:58;;;;;;;2.73;2.13;;;;;;;26.83;25.26;99940.84;5069499;23;20205;-77
2022/06/06 14:35:43;;;;;;;3.78;1.90;;;;;;;26.92;25.34;99936.53;5029325;23;25363;-75
2022/06/06 14:38:20;;;;;;;4.50;2.10;;;;;;;27.20;25.59;99932.56;5064699;23;21864;-76
2022/06/06 14:40:52;;;;;;;4.22;2.08;;;;;;;27.73;25.75;99933.28;5054717;23;20208;-71
2022/06/06 14:43:20;;;;;;;4.50;2.28;;;;;;;28.11;26.06;99933.88;5086929;23;20464;-73
2022/06/06 14:45:54;;;;;;;5.93;2.87;;;;;;;28.33;25.97;99932.75;5073746;23;22442;-75
2022/06/06 14:48:40;;;;;;;3.55;2.30;;;;;;;28.48;25.72;99924.56;5069637;23;20211;-73
2022/06/06 14:51:08;;;;;;;4.97;2.60;;;;;;;28.32;25.96;99923.75;5081437;23;22176;-75
2022/06/06 14:53:53;;;;;;;8.90;2.83;;;;;;;28.32;26.81;99921.00;5081291;23;21485;-72
2022/06/06 14:56:34;;;;;;;5.85;2.45;;;;;;;28.72;25.54;99921.22;5057608;23;21168;-74
2022/06/06 14:59:08;;;;;;;3.25;2.25;;;;;;;28.80;25.32;99934.38;5103960;23;20735;-73
2022/06/06 15:01:35;;;;;;;5.60;2.58;;;;;;;28.34;25.77;99924.28;5110109;23;20991;-72
2022/06/06 15:04:21;;;;;;;6.17;2.70;;;;;;;27.97;26.89;99927.31;5088957;23;26609;-72
2022/06/06 15:06:59;;;;;;;2.45;2.20;;;;;;;27.87;25.97;99908.16;5068792;23;20207;-76
2022/06/06 15:09:29;;;;;;;4.78;2.25;;;;;;;27.60;26.53;99911.91;5045538;23;20273;-71
2022/06/06 15:11:55;;;;;;;3.47;2.40;;;;;;;27.54;27.16;99905.63;5076326;23;20631;-72
2022/06/06 15:14:26;;;;;;;6.25;2.28;;;;;;;27.52;27.08;99907.00;5068232;23;22017;-73
2022/06/06 15:16:53;;;;;;;3.05;2.25;;;;;;;27.51;26.54;99899.88;5116258;23;20268;-74
2022/06/06 15:19:46;;;;;;;5.10;2.20;;;;;;;27.44;26.92;99896.56;5090211;23;26725;-75
2022/06/06 15:22:20;;;;;;;5.47;2.42;;;;;;;27.53;27.15;99884.88;5081592;23;22740;-74
2022/06/06 15:24:47;;;;;;;7.22;2.38;;;;;;;27.56;27.28;99891.72;5061087;23;20203;-74
2022/06/06 15:27:44;;;;;;;5.67;2.43;;;;;;;27.42;27.79;99885.09;5099107;23;20381;-73
2022/06/06 15:30:13;;;;;;;4.95;2.30;;;;;;;27.45;27.53;99879.91;5080380;23;20204;-76
2022/06/06 15:32:53;;;;;;;3.92;2.45;;;;;;;27.39;28.09;99881.00;5062305;23;21671;-60
2022/06/06 15:35:44;;;;;;;5.45;2.40;;;;;;;27.26;28.43;99879.59;5061140;23;21973;-68
2022/06/06 15:38:26;;;;;;;5.95;2.38;;;;;;;27.27;27.91;99875.78;5094575;23;20278;-61
2022/06/06 15:41:21;;;;;;;4.30;2.03;;;;;;;27.35;27.58;99875.25;5159515;23;20260;-69
2022/06/06 15:44:01;;;;;;;5.93;2.57;;;;;;;27.30;27.58;99874.41;5105392;23;20779;-74
2022/06/06 15:47:05;;;;;;;6.80;2.40;;;;;;;27.46;28.23;99873.34;5104439;23;21584;-78
2022/06/06 15:49:55;;;;;;;2.80;2.00;;;;;;;27.57;27.52;99876.94;5122615;23;20212;-76
2022/06/06 15:52:35;;;;;;;7.65;2.70;;;;;;;27.55;27.08;99869.00;5133560;23;21847;-76
2022/06/06 15:55:10;;;;;;;3.17;2.25;;;;;;;27.27;26.70;99883.97;5125690;23;21577;-74
2022/06/06 15:57:44;;;;;;;5.00;2.33;;;;;;;26.94;27.87;99868.81;5096165;23;20258;-71
2022/06/06 16:00:21;;;;;;;7.43;2.60;;;;;;;26.84;28.20;99866.06;5075303;23;20246;-71
2022/06/06 16:02:47;;;;;;;8.73;2.45;;;;;;;26.80;28.21;99863.03;5072530;23;20610;-69
2022/06/06 16:05:26;;;;;;;5.53;2.42;;;;;;;26.68;27.81;99865.16;5087023;23;20679;-70
2022/06/06 16:08:17;;;;;;;4.57;2.17;;;;;;;26.59;28.22;99861.28;5052700;23;20203;-70
2022/06/06 16:10:56;;;;;;;4.80;2.13;;;;;;;26.48;28.01;99857.63;5102537;23;20924;-69
2022/06/06 16:13:45;;;;;;;6.43;2.30;;;;;;;26.39;28.29;99851.06;5099646;23;21144;-71
2022/06/06 16:16:24;;;;;;;4.85;2.38;;;;;;;26.44;27.75;99854.63;5056235;23;20214;-72
2022/06/06 16:19:11;;;;;;;5.78;2.55;;;;;;;26.34;28.04;99849.13;5076351;23;22859;-76
2022/06/06 16:21:55;;;;;;;4.40;2.20;;;;;;;26.40;26.95;99858.16;5052320;23;20234;-71
2022/06/06 16:24:46;;;;;;;10.73;2.80;;;;;;;26.28;27.64;99851.00;5049282;23;24329;-72
2022/06/06 16:27:21;;;;;;;3.35;2.17;;;;;;;26.20;27.08;99850.66;5071023;23;21610;-58
2022/06/06 16:29:51;;;;;;;4.50;2.30;;;;;;;26.17;26.93;99857.47;5078405;23;20208;-56
2022/06/06 16:32:18;;;;;;;3.90;2.15;;;;;;;26.09;27.27;99858.78;5054738;23;20199;-74
2022/06/06 16:34:45;;;;;;;4.07;1.95;;;;;;;26.04;27.45;99855.19;5102337;23;20414;-76
2022/06/06 16:37:13;;;;;;;4.30;2.08;;;;;;;25.98;27.66;99859.78;5055977;23;20212;-74
2022/06/06 16:39:56;;;;;;;4.18;2.20;;;;;;;25.98;27.34;99850.78;5065635;23;20357;-72
2022/06/06 16:48:31;;;;;;;9.27;2.40;;;;;;;25.83;27.62;99849.56;5049991;23;20672;-75
2022/06/06 16:51:35;;;;;;;4.03;2.13;;;;;;;25.72;28.31;99841.56;5044387;23;20270;-75
2022/06/06 16:54:07;;;;;;;4.38;2.40;;;;;;;25.69;28.85;99841.00;5069180;23;20262;-73
2022/06/06 16:56:53;;;;;;;7.18;2.80;;;;;;;25.76;29.43;99834.50;5054117;23;20216;-72
2022/06/06 16:59:38;;;;;;;5.65;2.70;;;;;;;25.64;30.01;99840.13;5059777;23;20479;-72
2022/06/06 17:02:14;;;;;;;8.90;2.40;;;;;;;25.64;30.71;99835.50;5060544;23;20204;-76
2022/06/06 17:04:54;;;;;;;10.27;2.72;;;;;;;25.65;30.98;99834.41;5051164;23;20207;-75
2022/06/06 17:07:48;;;;;;;9.13;3.10;;;;;;;25.39;31.59;99827.09;5032656;23;23000;-75
2022/06/06 17:10:34;;;;;;;7.38;2.80;;;;;;;25.40;31.53;99826.84;5055046;23;20471;-74
2022/06/06 17:13:02;;;;;;;6.40;2.70;;;;;;;25.34;31.59;99832.50;5039164;23;20227;-76
2022/06/06 17:15:31;;;;;;;5.90;2.72;;;;;;;25.36;31.58;99833.06;5030981;23;20208;-74
2022/06/06 17:17:58;;;;;;;6.90;2.60;;;;;;;25.36;32.08;99833.06;5053984;23;20225;-74
2022/06/06 17:20:31;;;;;;;5.45;2.88;;;;;;;25.27;32.44;99830.78;5048821;23;20204;-75
2022/06/06 17:23:03;;;;;;;7.68;2.88;;;;;;;25.22;33.05;99825.28;5044525;23;20208;-76
2022/06/06 17:25:38;;;;;;;6.80;2.70;;;;;;;25.22;32.58;99830.75;5071231;23;20254;-77
2022/06/06 17:28:27;;;;;;;4.95;2.60;;;;;;;25.19;32.81;99822.25;5053424;23;20267;-74
2022/06/06 17:31:23;;;;;;;3.58;2.50;;;;;;;25.11;33.08;99820.78;5100371;23;20603;-71
2022/06/06 17:34:04;;;;;;;7.25;3.10;;;;;;;25.15;33.19;99819.19;5077512;23;20296;-71
2022/06/06 17:36:43;;;;;;;6.68;2.65;;;;;;;25.16;32.93;99818.09;5058106;23;20224;-73
2022/06/06 17:39:22;;;;;;;4.22;2.63;;;;;;;25.17;32.74;99822.50;5045352;23;20306;-74
2022/06/06 17:42:24;;;;;;;8.50;2.90;;;;;;;25.22;33.05;99822.56;5060899;23;20203;-74
2022/06/06 17:45:16;;;;;;;9.40;3.05;;;;;;;25.15;33.14;99815.66;5030896;23;21208;-73
2022/06/06 17:47:57;;;;;;;6.03;3.05;;;;;;;25.10;33.47;99808.25;5055814;23;21325;-73
2022/06/06 17:50:50;;;;;;;6.38;3.28;;;;;;;25.06;34.36;99812.56;5047020;23;20233;-75
2022/06/06 17:53:31;;;;;;;11.05;3.55;;;;;;;24.98;35.51;99813.00;5038888;23;22641;-74
2022/06/06 17:56:18;;;;;;;9.80;2.97;;;;;;;24.84;34.48;99821.59;5031409;23;20546;-73
2022/06/06 17:59:00;;;;;;;10.00;3.10;;;;;;;24.81;35.52;99811.19;5063669;23;20207;-75
2022/06/06 18:01:56;;;;;;;7.30;2.90;;;;;;;24.88;35.06;99821.06;5037956;23;20377;-75
2022/06/06 18:04:44;;;;;;;7.93;3.00;;;;;;;24.91;34.71;99821.41;5051496;23;20208;-74
2022/06/06 18:07:31;;;;;;;13.90;3.40;;;;;;;24.87;35.65;99814.81;5056511;23;20214;-73
2022/06/06 18:10:18;;;;;;;9.23;3.10;;;;;;;24.76;35.57;99819.28;5083566;23;20645;-73
2022/06/06 18:13:10;;;;;;;5.90;3.10;;;;;;;24.76;34.56;99823.91;5089954;23;20207;-72
2022/06/06 18:15:46;;;;;;;8.23;2.95;;;;;;;24.76;34.33;99824.75;5093250;23;20476;-73
2022/06/06 18:18:19;;;;;;;10.35;3.83;;;;;;;24.66;35.49;99829.25;5087682;23;20247;-74
2022/06/06 18:20:53;;;;;;;8.98;3.20;;;;;;;24.74;34.75;99826.88;5090992;23;20219;-74
2022/06/06 18:23:27;;;;;;;6.40;3.15;;;;;;;24.69;34.67;99818.66;5101251;23;20919;-72
2022/06/06 18:26:00;;;;;;;13.20;4.05;;;;;;;24.59;35.04;99816.66;5081872;23;20323;-74
2022/06/06 18:28:45;;;;;;;11.52;3.70;;;;;;;24.42;35.91;99813.13;5094434;23;20208;-74
2022/06/06 18:31:23;;;;;;;10.23;3.53;;;;;;;24.42;36.40;99818.56;5149979;23;20348;-74
2022/06/06 18:34:15;;;;;;;7.25;3.05;;;;;;;24.37;36.38;99811.16;5107378;23;20214;-74
2022/06/06 18:36:43;;;;;;;7.15;3.10;;;;;;;24.33;36.58;99817.38;5150540;23;21005;-72
2022/06/06 18:39:29;;;;;;;9.15;3.22;;;;;;;24.17;37.14;99811.69;5135168;23;21009;-76
2022/06/06 18:42:04;;;;;;;6.00;3.20;;;;;;;24.10;38.04;99812.94;5202331;23;20204;-73
2022/06/06 18:44:36;;;;;;;7.60;3.10;;;;;;;23.99;38.26;99803.81;5091329;23;20488;-77
2022/06/06 18:47:37;;;;;;;17.42;3.45;;;;;;;23.80;39.72;99803.25;5157372;23;20618;-78
2022/06/06 18:50:21;;;;;;;7.10;3.40;;;;;;;23.64;40.22;99802.16;5160628;23;20736;-73
2022/06/06 18:52:58;;;;;;;8.57;3.30;;;;;;;23.58;40.79;99806.69;5114247;23;20278;-74
2022/06/06 18:55:29;;;;;;;6.97;3.17;;;;;;;23.42;41.67;99803.97;5116922;23;20215;-76
2022/06/06 18:58:30;;;;;;;9.38;3.50;;;;;;;23.33;42.51;99808.97;5152212;23;20364;-78
2022/06/06 19:01:20;;;;;;;5.97;3.00;;;;;;;23.32;42.58;99804.56;5199327;23;26116;-76
2022/06/06 19:04:00;;;;;;;7.45;3.47;;;;;;;23.28;42.74;99808.88;5194906;23;20210;-77
2022/06/06 19:06:38;;;;;;;6.70;3.37;;;;;;;23.07;43.82;99813.91;5077557;23;20204;-76
2022/06/06 19:09:24;;;;;;;10.23;3.50;;;;;;;23.14;44.00;99808.34;5107865;23;20200;-77
2022/06/06 19:11:52;;;;;;;5.87;3.40;;;;;;;23.18;44.16;99807.63;5113068;23;20221;-72
2022/06/06 19:14:25;;;;;;;9.60;4.00;;;;;;;23.04;44.89;99802.72;5134631;23;20210;-76
2022/06/06 19:16:55;;;;;;;9.43;3.50;;;;;;;22.97;45.00;99811.81;5111988;23;20204;-75
2022/06/06 19:19:28;;;;;;;6.10;3.50;;;;;;;23.04;45.02;99808.13;5075939;23;20630;-74
2022/06/06 19:21:57;;;;;;;9.07;5.03;;;;;;;23.01;45.66;99798.59;5054578;23;22342;-73
2022/06/06 19:24:25;;;;;;;5.87;4.10;;;;;;;23.02;45.57;99794.81;5038803;23;20222;-73
2022/06/06 19:27:02;;;;;;;5.43;4.00;;;;;;;22.91;45.96;99803.81;5056213;23;20234;-74
2022/06/06 19:29:37;;;;;;;6.97;4.10;;;;;;;22.90;46.12;99808.41;5060436;23;21740;-73
2022/06/06 19:32:29;;;;;;;10.13;4.70;;;;;;;22.89;46.97;99800.50;5056753;23;20208;-74
2022/06/06 19:35:22;;;;;;;8.47;4.53;;;;;;;22.86;46.90;99806.41;5030865;23;20658;-74
2022/06/06 19:37:49;;;;;;;9.50;4.97;;;;;;;22.84;47.11;99805.84;5053730;23;20200;-73
2022/06/06 19:40:16;;;;;;;6.63;3.80;;;;;;;22.85;47.29;99811.03;5068271;23;25377;-73
2022/06/06 19:42:49;;;;;;;6.73;4.20;;;;;;;22.86;47.44;99806.41;5066016;23;20547;-74
2022/06/06 19:45:23;;;;;;;11.50;4.37;;;;;;;22.89;47.34;99804.03;5047779;23;20204;-78
2022/06/06 19:47:57;;;;;;;11.17;4.30;;;;;;;22.74;48.36;99809.16;5048708;23;20277;-78
2022/06/06 19:50:45;;;;;;;6.90;4.10;;;;;;;22.66;48.51;99804.94;5053979;23;20692;-74
2022/06/06 19:53:28;;;;;;;9.30;4.07;;;;;;;22.68;48.62;99805.50;5057494;23;20203;-75
2022/06/06 19:56:05;;;;;;;12.20;4.40;;;;;;;22.68;48.74;99810.94;5070372;23;20225;-74
2022/06/06 19:58:34;;;;;;;9.20;4.10;;;;;;;22.65;49.02;99806.00;5036648;23;20235;-75
2022/06/06 20:01:03;;;;;;;6.07;3.83;;;;;;;22.68;49.14;99810.13;5078677;23;20204;-75
2022/06/06 20:03:42;;;;;;;8.37;3.83;;;;;;;22.73;48.85;99813.78;5039557;23;20693;-76
2022/06/06 20:06:24;;;;;;;5.73;4.20;;;;;;;22.73;48.81;99819.19;5036701;23;20207;-74
2022/06/06 20:08:58;;;;;;;7.68;4.50;;;;;;;22.90;48.62;99830.13;5067207;23;22229;-74
2022/06/06 20:11:26;;;;;;;13.52;5.05;;;;;;;22.77;49.38;99830.38;5086621;23;22298;-76
2022/06/06 20:14:00;;;;;;;9.23;4.73;;;;;;;22.48;50.25;99832.22;5060425;23;20243;-75
2022/06/06 20:16:32;;;;;;;19.37;5.33;;;;;;;22.36;50.61;99837.66;5088066;23;20382;-75
2022/06/06 20:19:04;;;;;;;13.05;5.28;;;;;;;22.32;50.36;99834.59;5071107;23;20204;-76
2022/06/06 20:21:38;;;;;;;10.60;5.07;;;;;;;22.32;50.50;99826.47;5076090;23;20656;-77
2022/06/06 20:24:06;;;;;;;10.10;4.63;;;;;;;22.32;50.77;99822.94;5060849;23;20199;-80
2022/06/06 20:26:35;;;;;;;6.60;4.50;;;;;;;22.29;50.78;99829.66;5089783;23;20238;-78
2022/06/06 20:29:27;;;;;;;6.50;4.20;;;;;;;22.26;50.82;99821.97;5097461;23;20274;-76
2022/06/06 20:32:13;;;;;;;11.97;4.90;;;;;;;22.25;50.75;99827.66;5068386;23;21429;-74
2022/06/06 20:34:51;;;;;;;9.53;5.30;;;;;;;22.18;50.91;99830.44;5064428;23;20598;-76
2022/06/06 20:37:26;;;;;;;12.27;5.20;;;;;;;22.15;52.25;99833.63;5057765;23;21422;-76
2022/06/06 20:39:59;;;;;;;11.47;6.87;;;;;;;22.11;55.79;99832.44;5053400;23;20221;-73
2022/06/06 20:42:41;;;;;;;11.73;7.00;;;;;;;21.98;56.68;99829.97;5055881;23;20279;-76
2022/06/06 20:45:39;;;;;;;9.17;6.43;;;;;;;21.91;57.64;99828.22;5058495;23;20210;-61
2022/06/06 20:48:24;;;;;;;15.43;8.60;;;;;;;21.77;59.65;99826.75;5037473;23;20270;-73
2022/06/06 20:50:54;;;;;;;11.87;8.37;;;;;;;21.46;61.79;99831.41;5058106;23;20209;-73
2022/06/06 20:53:25;;;;;;;16.03;8.63;;;;;;;21.12;64.40;99829.38;5050107;23;20203;-74
2022/06/06 20:55:59;;;;;;;13.70;8.73;;;;;;;20.92;66.12;99830.47;5064102;23;20212;-74
2022/06/06 20:58:25;;;;;;;13.70;9.10;;;;;;;20.78;66.85;99824.41;5038527;23;20204;-73